sensor_id;sensor_type;location;lat;lon;timestamp;P1;durP1;ratioP1;P2;durP2;ratioP2
71648;SDS011;59492;45.638;11.714;2022-07-29T00:00:43;4.60;;;2.80;;
71648;SDS011;59492;45.638;11.714;2022-07-29T00:03:10;3.80;;;3.10;;
71648;SDS011;59492;45.638;11.714;2022-07-29T00:05:37;5.40;;;3.10;;
71648;SDS011;59492;45.638;11.714;2022-07-29T00:08:04;6.90;;;3.00;;
71648;SDS011;59492;45.638;11.714;2022-07-29T00:10:30;6.40;;;3.00;;
71648;SDS011;59492;45.638;11.714;2022-07-29T00:12:55;4.30;;;3.30;;
71648;SDS011;59492;45.638;11.714;2022-07-29T00:15:21;4.90;;;3.00;;
71648;SDS011;59492;45.638;11.714;2022-07-29T00:17:46;4.80;;;3.00;;
71648;SDS011;59492;45.638;11.714;2022-07-29T00:20:12;3.80;;;2.90;;
71648;SDS011;59492;45.638;11.714;2022-07-29T00:22:38;4.30;;;2.90;;
71648;SDS011;59492;45.638;11.714;2022-07-29T00:25:04;3.00;;;2.70;;
71648;SDS011;59492;45.638;11.714;2022-07-29T00:27:31;3.80;;;3.00;;
71648;SDS011;59492;45.638;11.714;2022-07-29T00:29:57;4.80;;;3.00;;
71648;SDS011;59492;45.638;11.714;2022-07-29T00:32:24;5.60;;;2.80;;
71648;SDS011;59492;45.638;11.714;2022-07-29T00:34:51;4.90;;;3.20;;
71648;SDS011;59492;45.638;11.714;2022-07-29T00:37:35;3.20;;;2.70;;
71648;SDS011;59492;45.638;11.714;2022-07-29T00:40:01;3.10;;;2.80;;
71648;SDS011;59492;45.638;11.714;2022-07-29T00:42:26;3.90;;;3.10;;
71648;SDS011;59492;45.638;11.714;2022-07-29T00:44:52;6.30;;;2.80;;
71648;SDS011;59492;45.638;11.714;2022-07-29T00:47:18;6.10;;;2.80;;
71648;SDS011;59492;45.638;11.714;2022-07-29T00:49:43;5.20;;;3.10;;
71648;SDS011;59492;45.638;11.714;2022-07-29T00:52:10;4.30;;;2.40;;
71648;SDS011;59492;45.638;11.714;2022-07-29T00:54:36;4.20;;;2.50;;
71648;SDS011;59492;45.638;11.714;2022-07-29T00:57:04;3.00;;;2.20;;
71648;SDS011;59492;45.638;11.714;2022-07-29T00:59:32;8.50;;;2.20;;
71648;SDS011;59492;45.638;11.714;2022-07-29T01:01:57;4.30;;;2.30;;
71648;SDS011;59492;45.638;11.714;2022-07-29T01:04:23;2.80;;;2.20;;
71648;SDS011;59492;45.638;11.714;2022-07-29T01:06:49;3.20;;;2.00;;
71648;SDS011;59492;45.638;11.714;2022-07-29T01:09:16;3.40;;;2.50;;
71648;SDS011;59492;45.638;11.714;2022-07-29T01:11:43;2.90;;;2.10;;
71648;SDS011;59492;45.638;11.714;2022-07-29T01:14:11;3.70;;;2.00;;
71648;SDS011;59492;45.638;11.714;2022-07-29T01:16:39;5.00;;;2.40;;
71648;SDS011;59492;45.638;11.714;2022-07-29T01:22:25;5.10;;;2.30;;
71648;SDS011;59492;45.638;11.714;2022-07-29T01:27:51;3.70;;;2.50;;
71648;SDS011;59492;45.638;11.714;2022-07-29T01:30:21;2.30;;;1.80;;
71648;SDS011;59492;45.638;11.714;2022-07-29T01:32:50;3.00;;;2.10;;
71648;SDS011;59492;45.638;11.714;2022-07-29T01:35:54;2.80;;;2.10;;
71648;SDS011;59492;45.638;11.714;2022-07-29T01:38:22;5.20;;;2.30;;
71648;SDS011;59492;45.638;11.714;2022-07-29T01:40:54;3.30;;;2.10;;
71648;SDS011;59492;45.638;11.714;2022-07-29T01:44:09;3.90;;;2.20;;
71648;SDS011;59492;45.638;11.714;2022-07-29T01:46:31;3.10;;;2.20;;
71648;SDS011;59492;45.638;11.714;2022-07-29T01:49:02;3.10;;;2.20;;
71648;SDS011;59492;45.638;11.714;2022-07-29T01:51:41;3.00;;;2.30;;
71648;SDS011;59492;45.638;11.714;2022-07-29T01:54:25;3.70;;;2.10;;
71648;SDS011;59492;45.638;11.714;2022-07-29T01:56:56;4.20;;;2.20;;
71648;SDS011;59492;45.638;11.714;2022-07-29T01:59:23;2.70;;;2.10;;
71648;SDS011;59492;45.638;11.714;2022-07-29T02:01:52;3.30;;;1.90;;
71648;SDS011;59492;45.638;11.714;2022-07-29T02:04:19;6.30;;;2.10;;
71648;SDS011;59492;45.638;11.714;2022-07-29T02:06:45;2.30;;;2.00;;
71648;SDS011;59492;45.638;11.714;2022-07-29T02:09:14;3.40;;;2.10;;
71648;SDS011;59492;45.638;11.714;2022-07-29T02:11:44;2.90;;;2.20;;
71648;SDS011;59492;45.638;11.714;2022-07-29T02:14:15;3.30;;;2.30;;
71648;SDS011;59492;45.638;11.714;2022-07-29T02:16:44;2.60;;;2.00;;
71648;SDS011;59492;45.638;11.714;2022-07-29T02:19:11;4.60;;;2.30;;
71648;SDS011;59492;45.638;11.714;2022-07-29T02:21:39;3.60;;;2.00;;
71648;SDS011;59492;45.638;11.714;2022-07-29T02:24:07;2.40;;;1.70;;
71648;SDS011;59492;45.638;11.714;2022-07-29T02:26:36;4.00;;;2.10;;
71648;SDS011;59492;45.638;11.714;2022-07-29T02:29:03;3.20;;;1.80;;
71648;SDS011;59492;45.638;11.714;2022-07-29T02:31:32;2.80;;;1.90;;
71648;SDS011;59492;45.638;11.714;2022-07-29T02:34:00;3.80;;;2.10;;
71648;SDS011;59492;45.638;11.714;2022-07-29T02:36:28;2.20;;;2.00;;
71648;SDS011;59492;45.638;11.714;2022-07-29T02:38:55;2.50;;;2.10;;
71648;SDS011;59492;45.638;11.714;2022-07-29T02:44:19;3.80;;;2.10;;
71648;SDS011;59492;45.638;11.714;2022-07-29T02:47:02;2.20;;;1.80;;
71648;SDS011;59492;45.638;11.714;2022-07-29T02:58:33;4.00;;;2.10;;
71648;SDS011;59492;45.638;11.714;2022-07-29T03:01:11;5.50;;;2.40;;
71648;SDS011;59492;45.638;11.714;2022-07-29T03:03:40;4.20;;;2.00;;
71648;SDS011;59492;45.638;11.714;2022-07-29T03:06:10;3.30;;;1.90;;
71648;SDS011;59492;45.638;11.714;2022-07-29T03:08:38;4.90;;;2.10;;
71648;SDS011;59492;45.638;11.714;2022-07-29T03:11:05;3.10;;;2.00;;
71648;SDS011;59492;45.638;11.714;2022-07-29T03:13:33;3.10;;;2.10;;
71648;SDS011;59492;45.638;11.714;2022-07-29T03:16:00;3.20;;;2.00;;
71648;SDS011;59492;45.638;11.714;2022-07-29T03:18:27;5.20;;;1.80;;
71648;SDS011;59492;45.638;11.714;2022-07-29T03:20:54;2.30;;;2.10;;
71648;SDS011;59492;45.638;11.714;2022-07-29T03:23:20;2.60;;;1.80;;
71648;SDS011;59492;45.638;11.714;2022-07-29T03:25:52;3.70;;;2.20;;
71648;SDS011;59492;45.638;11.714;2022-07-29T03:28:18;2.90;;;1.80;;
71648;SDS011;59492;45.638;11.714;2022-07-29T03:30:44;5.20;;;2.00;;
71648;SDS011;59492;45.638;11.714;2022-07-29T03:33:10;3.00;;;1.90;;
71648;SDS011;59492;45.638;11.714;2022-07-29T03:35:36;6.40;;;2.70;;
71648;SDS011;59492;45.638;11.714;2022-07-29T03:38:02;3.50;;;2.10;;
71648;SDS011;59492;45.638;11.714;2022-07-29T03:40:37;4.20;;;2.30;;
71648;SDS011;59492;45.638;11.714;2022-07-29T03:43:26;2.70;;;2.00;;
71648;SDS011;59492;45.638;11.714;2022-07-29T03:45:58;2.90;;;2.10;;
71648;SDS011;59492;45.638;11.714;2022-07-29T03:48:25;3.80;;;2.30;;
71648;SDS011;59492;45.638;11.714;2022-07-29T03:50:54;2.80;;;1.90;;
71648;SDS011;59492;45.638;11.714;2022-07-29T03:53:20;2.90;;;1.90;;
71648;SDS011;59492;45.638;11.714;2022-07-29T03:55:50;5.90;;;2.10;;
71648;SDS011;59492;45.638;11.714;2022-07-29T03:58:20;4.80;;;1.90;;
71648;SDS011;59492;45.638;11.714;2022-07-29T04:00:47;6.20;;;2.30;;
71648;SDS011;59492;45.638;11.714;2022-07-29T04:03:13;6.30;;;2.00;;
71648;SDS011;59492;45.638;11.714;2022-07-29T04:05:39;5.10;;;2.10;;
71648;SDS011;59492;45.638;11.714;2022-07-29T04:08:05;2.90;;;1.90;;
71648;SDS011;59492;45.638;11.714;2022-07-29T04:10:30;3.20;;;2.00;;
71648;SDS011;59492;45.638;11.714;2022-07-29T04:12:56;5.20;;;2.10;;
71648;SDS011;59492;45.638;11.714;2022-07-29T04:15:22;3.10;;;1.90;;
71648;SDS011;59492;45.638;11.714;2022-07-29T04:17:47;4.90;;;2.00;;
71648;SDS011;59492;45.638;11.714;2022-07-29T04:20:13;4.50;;;2.30;;
71648;SDS011;59492;45.638;11.714;2022-07-29T04:22:39;5.50;;;2.00;;
71648;SDS011;59492;45.638;11.714;2022-07-29T04:25:05;6.40;;;2.00;;
71648;SDS011;59492;45.638;11.714;2022-07-29T04:27:31;5.70;;;2.10;;
71648;SDS011;59492;45.638;11.714;2022-07-29T04:29:57;2.10;;;1.90;;
71648;SDS011;59492;45.638;11.714;2022-07-29T04:32:23;4.40;;;2.10;;
71648;SDS011;59492;45.638;11.714;2022-07-29T04:34:49;3.30;;;2.00;;
71648;SDS011;59492;45.638;11.714;2022-07-29T04:37:15;3.20;;;2.10;;
71648;SDS011;59492;45.638;11.714;2022-07-29T04:39:40;3.90;;;2.10;;
71648;SDS011;59492;45.638;11.714;2022-07-29T04:42:06;3.30;;;1.90;;
71648;SDS011;59492;45.638;11.714;2022-07-29T04:44:32;3.20;;;2.10;;
71648;SDS011;59492;45.638;11.714;2022-07-29T04:46:57;3.00;;;1.90;;
71648;SDS011;59492;45.638;11.714;2022-07-29T04:49:23;3.50;;;2.50;;
71648;SDS011;59492;45.638;11.714;2022-07-29T04:51:49;4.50;;;2.50;;
71648;SDS011;59492;45.638;11.714;2022-07-29T04:54:15;3.80;;;2.70;;
71648;SDS011;59492;45.638;11.714;2022-07-29T04:56:40;3.50;;;2.10;;
71648;SDS011;59492;45.638;11.714;2022-07-29T04:59:06;3.50;;;2.10;;
71648;SDS011;59492;45.638;11.714;2022-07-29T05:01:32;4.20;;;1.90;;
71648;SDS011;59492;45.638;11.714;2022-07-29T05:03:58;4.70;;;2.30;;
71648;SDS011;59492;45.638;11.714;2022-07-29T05:06:24;2.80;;;2.10;;
71648;SDS011;59492;45.638;11.714;2022-07-29T05:08:49;4.50;;;2.50;;
71648;SDS011;59492;45.638;11.714;2022-07-29T05:11:15;3.20;;;2.50;;
71648;SDS011;59492;45.638;11.714;2022-07-29T05:13:41;3.10;;;2.30;;
71648;SDS011;59492;45.638;11.714;2022-07-29T05:16:07;4.10;;;2.10;;
71648;SDS011;59492;45.638;11.714;2022-07-29T05:18:33;3.60;;;2.50;;
71648;SDS011;59492;45.638;11.714;2022-07-29T05:20:59;3.80;;;2.20;;
71648;SDS011;59492;45.638;11.714;2022-07-29T05:23:24;3.60;;;2.10;;
71648;SDS011;59492;45.638;11.714;2022-07-29T05:25:50;4.80;;;2.20;;
71648;SDS011;59492;45.638;11.714;2022-07-29T05:28:16;3.60;;;2.50;;
71648;SDS011;59492;45.638;11.714;2022-07-29T05:30:42;7.10;;;2.60;;
71648;SDS011;59492;45.638;11.714;2022-07-29T05:33:09;4.90;;;2.40;;
71648;SDS011;59492;45.638;11.714;2022-07-29T05:35:35;4.80;;;2.40;;
71648;SDS011;59492;45.638;11.714;2022-07-29T05:38:02;3.30;;;2.50;;
71648;SDS011;59492;45.638;11.714;2022-07-29T05:40:29;3.90;;;2.60;;
71648;SDS011;59492;45.638;11.714;2022-07-29T05:42:55;4.30;;;2.30;;
71648;SDS011;59492;45.638;11.714;2022-07-29T05:45:21;4.40;;;2.40;;
71648;SDS011;59492;45.638;11.714;2022-07-29T05:47:46;4.00;;;2.40;;
71648;SDS011;59492;45.638;11.714;2022-07-29T05:50:12;4.40;;;2.70;;
71648;SDS011;59492;45.638;11.714;2022-07-29T05:52:38;4.30;;;2.80;;
71648;SDS011;59492;45.638;11.714;2022-07-29T05:55:04;4.20;;;2.70;;
71648;SDS011;59492;45.638;11.714;2022-07-29T05:57:31;3.60;;;2.60;;
71648;SDS011;59492;45.638;11.714;2022-07-29T05:59:57;3.50;;;2.50;;
71648;SDS011;59492;45.638;11.714;2022-07-29T06:02:23;4.70;;;2.90;;
71648;SDS011;59492;45.638;11.714;2022-07-29T06:04:48;4.00;;;2.50;;
71648;SDS011;59492;45.638;11.714;2022-07-29T06:07:14;5.80;;;3.00;;
71648;SDS011;59492;45.638;11.714;2022-07-29T06:09:43;4.90;;;2.70;;
71648;SDS011;59492;45.638;11.714;2022-07-29T06:12:16;6.80;;;2.70;;
71648;SDS011;59492;45.638;11.714;2022-07-29T06:14:45;3.60;;;2.30;;
71648;SDS011;59492;45.638;11.714;2022-07-29T06:17:15;5.20;;;2.20;;
71648;SDS011;59492;45.638;11.714;2022-07-29T06:19:48;4.10;;;2.40;;
71648;SDS011;59492;45.638;11.714;2022-07-29T06:22:15;3.20;;;2.20;;
71648;SDS011;59492;45.638;11.714;2022-07-29T06:24:45;3.70;;;2.70;;
71648;SDS011;59492;45.638;11.714;2022-07-29T06:27:10;3.40;;;2.30;;
71648;SDS011;59492;45.638;11.714;2022-07-29T06:29:36;5.80;;;2.50;;
71648;SDS011;59492;45.638;11.714;2022-07-29T06:32:03;3.10;;;2.60;;
71648;SDS011;59492;45.638;11.714;2022-07-29T06:34:29;3.50;;;2.60;;
71648;SDS011;59492;45.638;11.714;2022-07-29T06:36:54;4.10;;;2.70;;
71648;SDS011;59492;45.638;11.714;2022-07-29T06:39:20;2.60;;;2.40;;
71648;SDS011;59492;45.638;11.714;2022-07-29T06:41:48;3.40;;;2.50;;
71648;SDS011;59492;45.638;11.714;2022-07-29T06:44:20;3.20;;;2.40;;
71648;SDS011;59492;45.638;11.714;2022-07-29T06:46:47;3.40;;;2.30;;
71648;SDS011;59492;45.638;11.714;2022-07-29T06:49:16;3.10;;;2.40;;
71648;SDS011;59492;45.638;11.714;2022-07-29T06:51:42;3.30;;;2.50;;
71648;SDS011;59492;45.638;11.714;2022-07-29T06:54:08;6.30;;;2.30;;
71648;SDS011;59492;45.638;11.714;2022-07-29T06:56:34;4.80;;;2.30;;
71648;SDS011;59492;45.638;11.714;2022-07-29T06:59:03;2.70;;;2.10;;
71648;SDS011;59492;45.638;11.714;2022-07-29T07:01:30;2.70;;;2.10;;
71648;SDS011;59492;45.638;11.714;2022-07-29T07:03:55;6.00;;;2.30;;
71648;SDS011;59492;45.638;11.714;2022-07-29T07:06:21;3.10;;;2.20;;
71648;SDS011;59492;45.638;11.714;2022-07-29T07:08:47;2.90;;;2.30;;
71648;SDS011;59492;45.638;11.714;2022-07-29T07:11:12;4.60;;;2.50;;
71648;SDS011;59492;45.638;11.714;2022-07-29T07:13:38;3.00;;;2.40;;
71648;SDS011;59492;45.638;11.714;2022-07-29T07:16:07;3.90;;;2.60;;
71648;SDS011;59492;45.638;11.714;2022-07-29T07:18:32;3.40;;;2.20;;
71648;SDS011;59492;45.638;11.714;2022-07-29T07:20:58;2.70;;;2.30;;
71648;SDS011;59492;45.638;11.714;2022-07-29T07:23:24;3.60;;;2.20;;
71648;SDS011;59492;45.638;11.714;2022-07-29T07:25:49;4.80;;;2.30;;
71648;SDS011;59492;45.638;11.714;2022-07-29T07:28:16;3.50;;;2.40;;
71648;SDS011;59492;45.638;11.714;2022-07-29T07:30:41;2.70;;;2.00;;
71648;SDS011;59492;45.638;11.714;2022-07-29T07:33:07;2.40;;;2.20;;
71648;SDS011;59492;45.638;11.714;2022-07-29T07:35:33;3.40;;;2.10;;
71648;SDS011;59492;45.638;11.714;2022-07-29T07:37:58;3.60;;;2.20;;
71648;SDS011;59492;45.638;11.714;2022-07-29T07:40:24;5.20;;;2.30;;
71648;SDS011;59492;45.638;11.714;2022-07-29T07:42:50;2.10;;;1.90;;
71648;SDS011;59492;45.638;11.714;2022-07-29T07:45:16;6.50;;;2.50;;
71648;SDS011;59492;45.638;11.714;2022-07-29T07:47:42;2.70;;;2.20;;
71648;SDS011;59492;45.638;11.714;2022-07-29T07:50:09;4.40;;;2.30;;
71648;SDS011;59492;45.638;11.714;2022-07-29T07:52:45;2.80;;;2.10;;
71648;SDS011;59492;45.638;11.714;2022-07-29T07:55:15;2.80;;;2.20;;
71648;SDS011;59492;45.638;11.714;2022-07-29T07:57:41;4.90;;;2.40;;
71648;SDS011;59492;45.638;11.714;2022-07-29T08:00:07;4.50;;;2.30;;
71648;SDS011;59492;45.638;11.714;2022-07-29T08:02:33;3.50;;;2.30;;
71648;SDS011;59492;45.638;11.714;2022-07-29T08:04:59;2.50;;;2.10;;
71648;SDS011;59492;45.638;11.714;2022-07-29T08:07:24;7.40;;;2.30;;
71648;SDS011;59492;45.638;11.714;2022-07-29T08:09:50;3.10;;;2.50;;
71648;SDS011;59492;45.638;11.714;2022-07-29T08:12:16;7.20;;;2.40;;
71648;SDS011;59492;45.638;11.714;2022-07-29T08:14:41;2.20;;;2.10;;
71648;SDS011;59492;45.638;11.714;2022-07-29T08:17:07;3.70;;;2.40;;
71648;SDS011;59492;45.638;11.714;2022-07-29T08:19:33;3.90;;;2.40;;
71648;SDS011;59492;45.638;11.714;2022-07-29T08:21:58;9.60;;;2.50;;
71648;SDS011;59492;45.638;11.714;2022-07-29T08:24:24;3.10;;;2.40;;
71648;SDS011;59492;45.638;11.714;2022-07-29T08:27:08;3.00;;;2.40;;
71648;SDS011;59492;45.638;11.714;2022-07-29T08:29:35;3.80;;;2.30;;
71648;SDS011;59492;45.638;11.714;2022-07-29T08:32:01;3.40;;;2.60;;
71648;SDS011;59492;45.638;11.714;2022-07-29T08:34:28;3.60;;;2.50;;
71648;SDS011;59492;45.638;11.714;2022-07-29T08:36:54;3.40;;;2.40;;
71648;SDS011;59492;45.638;11.714;2022-07-29T08:39:23;3.80;;;2.30;;
71648;SDS011;59492;45.638;11.714;2022-07-29T08:41:50;4.40;;;2.30;;
71648;SDS011;59492;45.638;11.714;2022-07-29T08:44:20;6.70;;;3.20;;
71648;SDS011;59492;45.638;11.714;2022-07-29T08:46:48;4.60;;;2.80;;
71648;SDS011;59492;45.638;11.714;2022-07-29T08:49:14;4.50;;;2.40;;
71648;SDS011;59492;45.638;11.714;2022-07-29T08:51:41;6.10;;;2.70;;
71648;SDS011;59492;45.638;11.714;2022-07-29T08:54:08;4.90;;;2.90;;
71648;SDS011;59492;45.638;11.714;2022-07-29T08:56:35;4.30;;;2.70;;
71648;SDS011;59492;45.638;11.714;2022-07-29T08:59:05;4.90;;;2.70;;
71648;SDS011;59492;45.638;11.714;2022-07-29T09:01:33;3.70;;;2.70;;
71648;SDS011;59492;45.638;11.714;2022-07-29T09:04:03;3.40;;;2.50;;
71648;SDS011;59492;45.638;11.714;2022-07-29T09:06:31;3.60;;;2.50;;
71648;SDS011;59492;45.638;11.714;2022-07-29T09:09:00;5.80;;;3.10;;
71648;SDS011;59492;45.638;11.714;2022-07-29T09:11:26;3.10;;;2.50;;
71648;SDS011;59492;45.638;11.714;2022-07-29T09:13:52;3.70;;;2.60;;
71648;SDS011;59492;45.638;11.714;2022-07-29T09:16:18;4.90;;;3.00;;
71648;SDS011;59492;45.638;11.714;2022-07-29T09:18:44;3.60;;;2.50;;
71648;SDS011;59492;45.638;11.714;2022-07-29T09:21:12;5.00;;;3.00;;
71648;SDS011;59492;45.638;11.714;2022-07-29T09:24:05;3.90;;;3.00;;
71648;SDS011;59492;45.638;11.714;2022-07-29T09:26:51;3.60;;;2.80;;
71648;SDS011;59492;45.638;11.714;2022-07-29T09:29:20;3.80;;;2.90;;
71648;SDS011;59492;45.638;11.714;2022-07-29T09:31:48;4.10;;;2.70;;
71648;SDS011;59492;45.638;11.714;2022-07-29T09:34:16;4.70;;;2.70;;
71648;SDS011;59492;45.638;11.714;2022-07-29T09:36:47;3.20;;;2.60;;
71648;SDS011;59492;45.638;11.714;2022-07-29T09:39:15;3.70;;;3.00;;
71648;SDS011;59492;45.638;11.714;2022-07-29T09:41:52;3.40;;;2.70;;
71648;SDS011;59492;45.638;11.714;2022-07-29T09:44:20;4.80;;;3.20;;
71648;SDS011;59492;45.638;11.714;2022-07-29T09:46:57;3.70;;;2.60;;
71648;SDS011;59492;45.638;11.714;2022-07-29T09:49:31;4.20;;;2.80;;
71648;SDS011;59492;45.638;11.714;2022-07-29T09:52:00;3.60;;;2.70;;
71648;SDS011;59492;45.638;11.714;2022-07-29T09:54:37;3.40;;;2.80;;
71648;SDS011;59492;45.638;11.714;2022-07-29T09:57:07;5.00;;;2.70;;
71648;SDS011;59492;45.638;11.714;2022-07-29T09:59:37;3.50;;;2.80;;
71648;SDS011;59492;45.638;11.714;2022-07-29T10:02:13;3.50;;;2.60;;
71648;SDS011;59492;45.638;11.714;2022-07-29T10:04:40;4.30;;;2.80;;
71648;SDS011;59492;45.638;11.714;2022-07-29T10:07:06;5.10;;;2.60;;
71648;SDS011;59492;45.638;11.714;2022-07-29T10:09:33;4.10;;;3.20;;
71648;SDS011;59492;45.638;11.714;2022-07-29T10:12:03;4.00;;;2.90;;
71648;SDS011;59492;45.638;11.714;2022-07-29T10:14:36;3.70;;;3.00;;
71648;SDS011;59492;45.638;11.714;2022-07-29T10:17:04;3.70;;;2.90;;
71648;SDS011;59492;45.638;11.714;2022-07-29T10:19:31;3.10;;;2.80;;
71648;SDS011;59492;45.638;11.714;2022-07-29T10:21:58;3.80;;;3.00;;
71648;SDS011;59492;45.638;11.714;2022-07-29T10:24:28;5.60;;;2.80;;
71648;SDS011;59492;45.638;11.714;2022-07-29T10:26:58;4.80;;;2.70;;
71648;SDS011;59492;45.638;11.714;2022-07-29T10:29:27;4.20;;;2.90;;
71648;SDS011;59492;45.638;11.714;2022-07-29T10:34:30;4.40;;;3.00;;
71648;SDS011;59492;45.638;11.714;2022-07-29T10:42:49;5.40;;;2.90;;
71648;SDS011;59492;45.638;11.714;2022-07-29T10:45:17;5.60;;;2.80;;
71648;SDS011;59492;45.638;11.714;2022-07-29T10:47:43;4.50;;;3.00;;
71648;SDS011;59492;45.638;11.714;2022-07-29T10:50:10;4.80;;;3.00;;
71648;SDS011;59492;45.638;11.714;2022-07-29T10:55:37;4.60;;;2.80;;
71648;SDS011;59492;45.638;11.714;2022-07-29T10:58:13;3.70;;;2.70;;
71648;SDS011;59492;45.638;11.714;2022-07-29T11:00:42;3.60;;;2.50;;
71648;SDS011;59492;45.638;11.714;2022-07-29T11:06:07;5.50;;;2.60;;
71648;SDS011;59492;45.638;11.714;2022-07-29T11:08:34;8.00;;;3.00;;
71648;SDS011;59492;45.638;11.714;2022-07-29T11:11:42;4.90;;;2.70;;
71648;SDS011;59492;45.638;11.714;2022-07-29T11:13:50;5.60;;;2.70;;
71648;SDS011;59492;45.638;11.714;2022-07-29T11:16:17;4.90;;;2.70;;
71648;SDS011;59492;45.638;11.714;2022-07-29T11:21:38;3.90;;;2.90;;
71648;SDS011;59492;45.638;11.714;2022-07-29T11:31:43;5.10;;;2.50;;
71648;SDS011;59492;45.638;11.714;2022-07-29T11:39:37;3.90;;;2.40;;
71648;SDS011;59492;45.638;11.714;2022-07-29T11:44:57;4.70;;;2.70;;
71648;SDS011;59492;45.638;11.714;2022-07-29T11:47:48;4.20;;;2.30;;
71648;SDS011;59492;45.638;11.714;2022-07-29T11:50:32;6.40;;;2.50;;
71648;SDS011;59492;45.638;11.714;2022-07-29T11:53:10;2.70;;;2.10;;
71648;SDS011;59492;45.638;11.714;2022-07-29T11:55:37;4.00;;;2.40;;
71648;SDS011;59492;45.638;11.714;2022-07-29T11:58:07;5.20;;;2.20;;
71648;SDS011;59492;45.638;11.714;2022-07-29T12:00:50;3.30;;;2.60;;
71648;SDS011;59492;45.638;11.714;2022-07-29T12:03:33;6.40;;;3.00;;
71648;SDS011;59492;45.638;11.714;2022-07-29T12:06:03;2.70;;;2.10;;
71648;SDS011;59492;45.638;11.714;2022-07-29T12:08:42;3.20;;;2.30;;
71648;SDS011;59492;45.638;11.714;2022-07-29T12:11:16;3.80;;;2.40;;
71648;SDS011;59492;45.638;11.714;2022-07-29T12:13:52;2.80;;;2.20;;
71648;SDS011;59492;45.638;11.714;2022-07-29T12:16:39;2.80;;;2.20;;
71648;SDS011;59492;45.638;11.714;2022-07-29T12:19:05;3.10;;;2.30;;
71648;SDS011;59492;45.638;11.714;2022-07-29T12:24:20;5.10;;;2.60;;
71648;SDS011;59492;45.638;11.714;2022-07-29T12:26:51;3.70;;;2.20;;
71648;SDS011;59492;45.638;11.714;2022-07-29T12:29:21;4.70;;;2.40;;
71648;SDS011;59492;45.638;11.714;2022-07-29T12:31:51;3.60;;;2.30;;
71648;SDS011;59492;45.638;11.714;2022-07-29T12:34:19;4.50;;;2.20;;
71648;SDS011;59492;45.638;11.714;2022-07-29T12:36:48;2.80;;;2.20;;
71648;SDS011;59492;45.638;11.714;2022-07-29T12:39:16;3.20;;;2.10;;
71648;SDS011;59492;45.638;11.714;2022-07-29T12:41:44;4.10;;;2.10;;
71648;SDS011;59492;45.638;11.714;2022-07-29T12:44:24;3.30;;;2.30;;
71648;SDS011;59492;45.638;11.714;2022-07-29T12:47:12;3.30;;;2.20;;
71648;SDS011;59492;45.638;11.714;2022-07-29T12:49:46;2.50;;;2.00;;
71648;SDS011;59492;45.638;11.714;2022-07-29T12:52:40;2.70;;;2.10;;
71648;SDS011;59492;45.638;11.714;2022-07-29T12:55:12;2.00;;;1.70;;
71648;SDS011;59492;45.638;11.714;2022-07-29T12:57:47;2.40;;;2.00;;
71648;SDS011;59492;45.638;11.714;2022-07-29T13:00:16;3.40;;;2.20;;
71648;SDS011;59492;45.638;11.714;2022-07-29T13:02:53;2.60;;;2.10;;
71648;SDS011;59492;45.638;11.714;2022-07-29T13:05:23;2.40;;;2.20;;
71648;SDS011;59492;45.638;11.714;2022-07-29T13:07:51;2.30;;;2.00;;
71648;SDS011;59492;45.638;11.714;2022-07-29T13:10:20;2.30;;;2.10;;
71648;SDS011;59492;45.638;11.714;2022-07-29T13:13:08;3.30;;;2.30;;
71648;SDS011;59492;45.638;11.714;2022-07-29T13:15:41;3.00;;;2.10;;
71648;SDS011;59492;45.638;11.714;2022-07-29T13:21:13;2.60;;;2.30;;
71648;SDS011;59492;45.638;11.714;2022-07-29T13:23:42;3.30;;;2.20;;
71648;SDS011;59492;45.638;11.714;2022-07-29T13:26:09;3.80;;;2.20;;
71648;SDS011;59492;45.638;11.714;2022-07-29T13:28:37;2.50;;;2.10;;
71648;SDS011;59492;45.638;11.714;2022-07-29T13:31:05;3.80;;;2.00;;
71648;SDS011;59492;45.638;11.714;2022-07-29T13:33:31;2.60;;;1.70;;
71648;SDS011;59492;45.638;11.714;2022-07-29T13:35:56;2.20;;;2.00;;
71648;SDS011;59492;45.638;11.714;2022-07-29T13:38:22;2.40;;;1.70;;
71648;SDS011;59492;45.638;11.714;2022-07-29T13:40:49;2.60;;;2.00;;
71648;SDS011;59492;45.638;11.714;2022-07-29T13:43:18;4.10;;;1.80;;
71648;SDS011;59492;45.638;11.714;2022-07-29T13:45:49;2.10;;;1.90;;
71648;SDS011;59492;45.638;11.714;2022-07-29T13:48:14;2.10;;;1.90;;
71648;SDS011;59492;45.638;11.714;2022-07-29T13:50:40;3.10;;;2.20;;
71648;SDS011;59492;45.638;11.714;2022-07-29T13:53:05;1.90;;;1.80;;
71648;SDS011;59492;45.638;11.714;2022-07-29T13:55:31;2.80;;;2.00;;
71648;SDS011;59492;45.638;11.714;2022-07-29T13:57:57;2.40;;;2.00;;
71648;SDS011;59492;45.638;11.714;2022-07-29T14:00:23;3.10;;;1.80;;
71648;SDS011;59492;45.638;11.714;2022-07-29T14:02:48;2.20;;;2.00;;
71648;SDS011;59492;45.638;11.714;2022-07-29T14:05:14;3.00;;;1.90;;
71648;SDS011;59492;45.638;11.714;2022-07-29T14:07:40;2.60;;;2.10;;
71648;SDS011;59492;45.638;11.714;2022-07-29T14:10:06;3.10;;;1.90;;
71648;SDS011;59492;45.638;11.714;2022-07-29T14:12:32;4.90;;;2.00;;
71648;SDS011;59492;45.638;11.714;2022-07-29T14:14:58;2.90;;;2.00;;
71648;SDS011;59492;45.638;11.714;2022-07-29T14:17:23;2.10;;;1.90;;
71648;SDS011;59492;45.638;11.714;2022-07-29T14:19:49;8.50;;;2.10;;
71648;SDS011;59492;45.638;11.714;2022-07-29T14:22:14;4.50;;;1.90;;
71648;SDS011;59492;45.638;11.714;2022-07-29T14:24:40;6.00;;;2.10;;
71648;SDS011;59492;45.638;11.714;2022-07-29T14:27:06;4.00;;;2.00;;
71648;SDS011;59492;45.638;11.714;2022-07-29T14:29:33;2.60;;;2.10;;
71648;SDS011;59492;45.638;11.714;2022-07-29T14:31:59;2.80;;;2.10;;
71648;SDS011;59492;45.638;11.714;2022-07-29T14:34:25;2.50;;;1.80;;
71648;SDS011;59492;45.638;11.714;2022-07-29T14:36:50;3.50;;;1.90;;
71648;SDS011;59492;45.638;11.714;2022-07-29T14:39:16;4.70;;;2.00;;
71648;SDS011;59492;45.638;11.714;2022-07-29T14:41:42;2.40;;;1.90;;
71648;SDS011;59492;45.638;11.714;2022-07-29T14:44:08;2.30;;;1.90;;
71648;SDS011;59492;45.638;11.714;2022-07-29T14:46:34;5.90;;;2.10;;
71648;SDS011;59492;45.638;11.714;2022-07-29T14:49:00;4.00;;;2.00;;
71648;SDS011;59492;45.638;11.714;2022-07-29T14:51:26;4.00;;;1.90;;
71648;SDS011;59492;45.638;11.714;2022-07-29T14:53:51;1.90;;;1.70;;
71648;SDS011;59492;45.638;11.714;2022-07-29T14:56:17;2.30;;;2.10;;
71648;SDS011;59492;45.638;11.714;2022-07-29T14:58:42;2.60;;;1.90;;
71648;SDS011;59492;45.638;11.714;2022-07-29T15:01:08;4.00;;;2.00;;
71648;SDS011;59492;45.638;11.714;2022-07-29T15:03:34;4.90;;;2.00;;
71648;SDS011;59492;45.638;11.714;2022-07-29T15:05:59;4.20;;;2.20;;
71648;SDS011;59492;45.638;11.714;2022-07-29T15:08:25;3.50;;;2.30;;
71648;SDS011;59492;45.638;11.714;2022-07-29T15:10:53;6.70;;;2.30;;
71648;SDS011;59492;45.638;11.714;2022-07-29T15:13:19;3.20;;;2.30;;
71648;SDS011;59492;45.638;11.714;2022-07-29T15:15:44;3.80;;;1.80;;
71648;SDS011;59492;45.638;11.714;2022-07-29T15:18:10;4.00;;;1.80;;
71648;SDS011;59492;45.638;11.714;2022-07-29T15:20:36;4.50;;;1.90;;
71648;SDS011;59492;45.638;11.714;2022-07-29T15:23:02;6.40;;;2.20;;
71648;SDS011;59492;45.638;11.714;2022-07-29T15:25:28;4.60;;;2.20;;
71648;SDS011;59492;45.638;11.714;2022-07-29T15:27:53;5.00;;;2.30;;
71648;SDS011;59492;45.638;11.714;2022-07-29T15:30:19;4.80;;;2.50;;
71648;SDS011;59492;45.638;11.714;2022-07-29T15:32:45;4.20;;;2.30;;
71648;SDS011;59492;45.638;11.714;2022-07-29T15:35:10;4.60;;;3.00;;
71648;SDS011;59492;45.638;11.714;2022-07-29T15:37:39;7.30;;;2.50;;